createdAt,value
2018-09-04T00:00:41.330Z,33.37
2018-09-04T00:03:09.527Z,29.40
2018-09-04T00:05:37.694Z,26.63
2018-09-04T00:08:05.934Z,28.57
2018-09-04T00:10:34.118Z,24.57
2018-09-04T00:13:02.337Z,29.60
2018-09-04T00:15:30.493Z,26.93
2018-09-04T00:17:58.690Z,27.43
2018-09-04T00:20:26.868Z,29.47
2018-09-04T00:22:55.052Z,29.90
2018-09-04T00:25:23.242Z,31.30
2018-09-04T00:27:51.431Z,27.87
2018-09-04T00:30:19.617Z,28.80
2018-09-04T00:32:47.806Z,32.13
2018-09-04T00:35:15.990Z,36.60
2018-09-04T00:37:44.175Z,32.80
2018-09-04T00:40:12.641Z,30.30
2018-09-04T00:42:41.407Z,33.33
2018-09-04T00:45:09.589Z,35.97
2018-09-04T00:47:37.775Z,33.60
2018-09-04T00:50:06.230Z,31.13
2018-09-04T00:52:34.432Z,35.93
2018-09-04T00:55:02.652Z,29.60
2018-09-04T00:57:30.848Z,30.80
2018-09-04T00:59:59.028Z,29.90
2018-09-04T01:02:27.219Z,28.33
2018-09-04T01:04:55.404Z,33.63
2018-09-04T01:07:23.594Z,26.90
2018-09-04T01:09:51.782Z,31.17
2018-09-04T01:12:19.971Z,32.27
2018-09-04T01:14:48.150Z,40.43
2018-09-04T01:17:16.347Z,26.53
2018-09-04T01:19:44.526Z,33.40
2018-09-04T01:22:12.744Z,36.17
2018-09-04T01:24:40.940Z,31.07
2018-09-04T01:27:09.127Z,28.87
2018-09-04T01:29:37.318Z,26.43
2018-09-04T01:32:05.897Z,26.57
2018-09-04T01:34:34.099Z,29.87
2018-09-04T01:37:02.284Z,28.20
2018-09-04T01:39:30.464Z,28.67
2018-09-04T01:41:58.654Z,28.37
2018-09-04T01:44:26.854Z,24.97
2018-09-04T01:46:55.038Z,25.07
2018-09-04T01:49:23.665Z,25.40
2018-09-04T01:51:51.845Z,27.83
2018-09-04T01:54:20.035Z,28.07
2018-09-04T01:56:48.207Z,26.83
2018-09-04T01:59:16.411Z,24.87
2018-09-04T02:01:44.591Z,23.53
2018-09-04T02:04:12.861Z,25.10
2018-09-04T02:06:41.051Z,24.03
2018-09-04T02:09:09.448Z,25.63
2018-09-04T02:11:37.661Z,26.07
2018-09-04T02:14:05.929Z,23.37
2018-09-04T02:16:34.114Z,21.73
2018-09-04T02:19:02.298Z,23.50
2018-09-04T02:21:30.502Z,28.70
2018-09-04T02:23:58.705Z,22.70
2018-09-04T02:26:26.886Z,22.57
2018-09-04T02:28:55.083Z,24.13
2018-09-04T02:31:23.279Z,23.03
2018-09-04T02:33:51.480Z,24.23
2018-09-04T02:36:19.658Z,19.67
2018-09-04T02:38:47.868Z,19.53
2018-09-04T02:41:16.032Z,19.47
2018-09-04T02:43:44.223Z,20.37
2018-09-04T02:46:12.413Z,19.43
2018-09-04T02:48:40.591Z,20.43
2018-09-04T02:51:08.782Z,22.37
2018-09-04T02:53:37.316Z,20.70
2018-09-04T02:56:05.478Z,19.73
2018-09-04T02:58:33.690Z,20.40
2018-09-04T03:01:01.898Z,20.07
2018-09-04T03:03:30.102Z,21.13
2018-09-04T03:05:58.282Z,19.67
2018-09-04T03:08:26.523Z,19.63
2018-09-04T03:10:54.800Z,18.80
2018-09-04T03:13:23.030Z,19.57
2018-09-04T03:15:51.176Z,20.77
2018-09-04T03:18:19.592Z,16.30
2018-09-04T03:20:47.795Z,20.17
2018-09-04T03:23:15.998Z,17.37
2018-09-04T03:25:44.193Z,17.47
2018-09-04T03:28:12.674Z,16.47
2018-09-04T03:30:40.889Z,18.57
2018-09-04T03:33:09.064Z,20.47
2018-09-04T03:35:37.255Z,17.53
2018-09-04T03:38:05.574Z,18.17
2018-09-04T03:40:33.775Z,18.97
2018-09-04T03:43:02.002Z,21.10
2018-09-04T03:45:30.194Z,17.37
2018-09-04T03:47:58.404Z,20.70
2018-09-04T03:50:26.594Z,18.30
2018-09-04T03:53:03.250Z,22.87
2018-09-04T03:55:31.443Z,17.37
2018-09-04T03:57:59.627Z,20.47
2018-09-04T04:00:27.823Z,17.67
2018-09-04T04:02:56.652Z,16.67
2018-09-04T04:05:24.856Z,18.03
2018-09-04T04:07:53.026Z,20.83
2018-09-04T04:10:21.232Z,18.20
2018-09-04T04:12:49.424Z,18.53
2018-09-04T04:15:17.680Z,19.57
2018-09-04T04:17:45.870Z,17.67
2018-09-04T04:20:14.096Z,27.90
2018-09-04T04:22:42.412Z,20.40
2018-09-04T04:25:10.615Z,18.40
2018-09-04T04:27:38.798Z,18.30
2018-09-04T04:30:07.115Z,21.27
2018-09-04T04:32:35.305Z,19.80
2018-09-04T04:35:03.887Z,19.27
2018-09-04T04:37:32.057Z,17.50
2018-09-04T04:40:00.321Z,18.13
2018-09-04T04:42:28.683Z,19.57
2018-09-04T04:44:56.891Z,17.63
2018-09-04T04:47:59.942Z,18.07
2018-09-04T04:50:28.047Z,19.40
2018-09-04T04:52:59.774Z,27.23
2018-09-04T04:55:28.042Z,25.43
2018-09-04T04:57:56.271Z,22.33
2018-09-04T05:00:24.495Z,25.87
2018-09-04T05:02:52.672Z,20.70
2018-09-04T05:05:20.974Z,22.63
2018-09-04T05:07:49.197Z,18.90
2018-09-04T05:10:17.426Z,22.80
2018-09-04T05:12:45.779Z,17.17
2018-09-04T05:15:13.981Z,17.17
2018-09-04T05:17:42.165Z,21.87
2018-09-04T05:20:11.831Z,22.10
2018-09-04T05:22:40.256Z,22.47
2018-09-04T05:25:08.440Z,25.17
2018-09-04T05:27:36.626Z,20.63
2018-09-04T05:30:04.812Z,15.40
2018-09-04T05:32:39.182Z,21.37
2018-09-04T05:35:09.240Z,21.80
2018-09-04T05:37:37.402Z,19.40
2018-09-04T05:40:05.620Z,15.60
2018-09-04T05:42:38.411Z,14.90
2018-09-04T05:45:08.627Z,13.67
2018-09-04T05:47:38.383Z,15.63
2018-09-04T05:50:07.617Z,18.40
2018-09-04T05:52:36.118Z,16.30
2018-09-04T05:55:04.656Z,15.53
2018-09-04T05:57:32.830Z,16.80
2018-09-04T06:00:01.108Z,17.73
2018-09-04T06:02:30.886Z,17.10
2018-09-04T06:04:59.334Z,15.40
2018-09-04T06:07:28.426Z,14.27
2018-09-04T06:09:56.660Z,14.33
2018-09-04T06:12:24.852Z,14.00
2018-09-04T06:14:53.044Z,13.57
2018-09-04T06:17:21.234Z,12.53
2018-09-04T06:19:49.431Z,15.50
2018-09-04T06:22:17.610Z,13.37
2018-09-04T06:24:45.802Z,13.87
2018-09-04T06:27:13.997Z,12.87
2018-09-04T06:29:42.301Z,12.70
2018-09-04T06:32:10.577Z,13.60
2018-09-04T06:34:38.763Z,13.00
2018-09-04T06:37:06.993Z,13.77
2018-09-04T06:39:35.156Z,13.77
2018-09-04T06:42:03.355Z,14.17
2018-09-04T06:44:31.538Z,12.83
2018-09-04T06:46:59.739Z,13.63
2018-09-04T06:49:27.945Z,13.63
2018-09-04T06:51:56.168Z,13.13
2018-09-04T06:54:24.363Z,12.67
2018-09-04T06:56:52.569Z,13.08
2018-09-04T06:59:21.740Z,13.93
2018-09-04T07:01:49.922Z,14.75
2018-09-04T07:04:24.706Z,12.47
2018-09-04T07:06:52.839Z,14.53
2018-09-04T07:09:21.019Z,12.25
2018-09-04T07:11:49.355Z,13.10
2018-09-04T07:14:17.531Z,13.60
2018-09-04T07:16:45.778Z,13.15
2018-09-04T07:19:15.498Z,13.90
2018-09-04T07:21:43.687Z,12.40
2018-09-04T07:24:12.228Z,13.20
2018-09-04T07:26:40.431Z,13.13
2018-09-04T07:29:08.807Z,14.80
2018-09-04T07:31:37.011Z,14.65
2018-09-04T07:34:05.373Z,15.00
2018-09-04T07:36:33.828Z,16.23
2018-09-04T07:39:01.942Z,17.48
2018-09-04T07:41:30.134Z,18.32
2018-09-04T07:43:58.310Z,20.37
2018-09-04T07:46:26.520Z,18.90
2018-09-04T07:48:54.711Z,24.20
2018-09-04T07:51:22.895Z,27.80
2018-09-04T07:53:51.180Z,33.95
2018-09-04T07:56:19.282Z,33.15
2018-09-04T07:58:47.484Z,32.80
2018-09-04T08:01:15.662Z,33.65
2018-09-04T08:03:43.884Z,32.05
2018-09-04T08:06:12.077Z,31.42
2018-09-04T08:08:40.259Z,31.33
2018-09-04T08:11:08.490Z,29.55
2018-09-04T08:13:36.683Z,31.40
2018-09-04T08:16:05.096Z,29.30
2018-09-04T08:18:33.308Z,34.27
2018-09-04T08:21:01.608Z,31.10
2018-09-04T08:23:29.713Z,31.62
2018-09-04T08:25:57.944Z,32.48
2018-09-04T08:28:26.101Z,33.55
2018-09-04T08:30:54.287Z,33.67
2018-09-04T08:33:22.555Z,32.67
2018-09-04T08:35:50.698Z,33.45
2018-09-04T08:38:18.895Z,34.85
2018-09-04T08:40:47.071Z,32.85
2018-09-04T08:43:15.264Z,32.65
2018-09-04T08:45:43.447Z,31.15
2018-09-04T08:48:17.574Z,31.02
2018-09-04T08:50:45.833Z,32.50
2018-09-04T08:53:14.240Z,32.40
2018-09-04T08:55:42.443Z,31.57
2018-09-04T08:58:10.636Z,32.17
2018-09-04T09:00:38.860Z,30.90
2018-09-04T09:03:07.443Z,33.13
2018-09-04T09:05:35.675Z,33.88
2018-09-04T09:08:03.853Z,33.42
2018-09-04T09:10:32.014Z,30.40
2018-09-04T09:13:00.223Z,31.02
2018-09-04T09:15:28.403Z,31.73
2018-09-04T09:17:56.613Z,29.52
2018-09-04T09:20:24.877Z,32.38
2018-09-04T09:22:53.108Z,29.02
2018-09-04T09:25:21.246Z,29.35
2018-09-04T09:27:49.455Z,28.83
2018-09-04T09:30:17.654Z,26.97
2018-09-04T09:32:45.839Z,26.80
2018-09-04T09:35:14.077Z,27.40
2018-09-04T09:37:42.215Z,25.40
2018-09-04T09:40:10.391Z,24.55
2018-09-04T09:42:38.644Z,24.95
2018-09-04T09:45:06.831Z,22.77
2018-09-04T09:47:39.534Z,22.60
2018-09-04T09:50:08.331Z,25.12
2018-09-04T09:52:36.691Z,23.80
2018-09-04T09:55:04.783Z,24.18
2018-09-04T09:57:33.057Z,21.82
2018-09-04T10:00:01.251Z,21.52
2018-09-04T10:02:34.755Z,23.47
2018-09-04T10:05:03.017Z,24.82
2018-09-04T10:07:31.294Z,23.55
2018-09-04T10:09:59.475Z,21.85
2018-09-04T10:12:28.487Z,21.68
2018-09-04T10:14:56.696Z,21.37
2018-09-04T10:17:24.873Z,20.08
2018-09-04T10:19:53.079Z,20.72
2018-09-04T10:22:21.248Z,22.40
2018-09-04T10:24:49.435Z,20.02
2018-09-04T10:27:17.668Z,18.82
2018-09-04T10:29:45.881Z,19.92
2018-09-04T10:32:14.087Z,19.52
2018-09-04T10:34:42.394Z,18.02
2018-09-04T10:37:10.624Z,20.55
2018-09-04T10:40:42.448Z,20.80
2018-09-04T10:43:10.599Z,18.50
2018-09-04T10:45:44.271Z,19.35
2018-09-04T10:48:13.726Z,18.42
2018-09-04T10:50:44.102Z,18.85
2018-09-04T10:53:12.504Z,18.27
2018-09-04T10:55:40.709Z,18.27
2018-09-04T10:58:08.881Z,20.15
2018-09-04T11:00:37.103Z,19.45
2018-09-04T11:03:05.309Z,18.85
2018-09-04T11:05:33.517Z,20.00
2018-09-04T11:08:01.718Z,18.82
2018-09-04T11:10:30.817Z,19.55
2018-09-04T11:12:59.613Z,19.32
2018-09-04T11:15:27.819Z,19.00
2018-09-04T11:17:56.243Z,18.92
2018-09-04T11:20:24.451Z,21.15
2018-09-04T11:22:52.635Z,17.67
2018-09-04T11:25:21.043Z,20.37
2018-09-04T11:27:49.249Z,20.25
2018-09-04T11:30:17.444Z,17.55
2018-09-04T11:32:47.746Z,17.17
2018-09-04T11:35:16.507Z,18.17
2018-09-04T11:37:44.692Z,19.48
2018-09-04T11:40:12.892Z,17.30
2018-09-04T11:42:41.363Z,17.92
2018-09-04T11:45:09.911Z,19.02
2018-09-04T11:47:40.332Z,16.60
2018-09-04T11:50:08.567Z,17.35
2018-09-04T11:52:36.984Z,16.45
2018-09-04T11:55:05.354Z,15.55
2018-09-04T11:57:33.749Z,15.53
2018-09-04T12:00:02.267Z,16.50
2018-09-04T12:02:34.494Z,17.45
2018-09-04T12:05:02.764Z,16.60
2018-09-04T12:07:31.907Z,14.73
2018-09-04T12:10:00.115Z,15.58
2018-09-04T12:12:32.154Z,16.82
2018-09-04T12:15:00.212Z,16.55
2018-09-04T12:17:28.406Z,17.77
2018-09-04T12:21:07.315Z,16.27
2018-09-04T12:23:35.395Z,14.87
2018-09-04T12:26:04.771Z,15.58
2018-09-04T12:28:33.479Z,15.38
2018-09-04T12:31:02.678Z,16.52
2018-09-04T12:33:30.897Z,16.17
2018-09-04T12:35:59.105Z,16.17
2018-09-04T12:38:31.616Z,15.63
2018-09-04T12:41:04.587Z,16.82
2018-09-04T12:43:33.231Z,15.48
2018-09-04T12:46:01.928Z,16.23
2018-09-04T12:48:31.439Z,14.90
2018-09-04T12:51:01.662Z,14.68
2018-09-04T12:53:31.197Z,15.43
2018-09-04T12:55:59.415Z,14.93
2018-09-04T12:58:27.630Z,15.20
2018-09-04T13:00:56.613Z,15.25
2018-09-04T13:03:26.788Z,15.95
2018-09-04T13:05:55.039Z,15.95
2018-09-04T13:08:25.015Z,15.13
2018-09-04T13:10:53.227Z,15.05
2018-09-04T13:13:21.439Z,13.95
2018-09-04T13:15:51.495Z,14.45
2018-09-04T13:18:19.788Z,14.55
2018-09-04T13:20:48.056Z,15.45
2018-09-04T13:23:16.519Z,15.65
2018-09-04T13:25:44.694Z,14.23
2018-09-04T13:28:13.215Z,15.38
2018-09-04T13:30:44.971Z,12.88
2018-09-04T13:33:14.273Z,12.13
2018-09-04T13:35:42.489Z,14.98
2018-09-04T13:38:10.688Z,15.03
2018-09-04T13:40:38.891Z,14.53
2018-09-04T13:43:07.625Z,15.38
2018-09-04T13:45:35.974Z,16.48
2018-09-04T13:48:04.159Z,17.73
2018-09-04T13:50:32.355Z,18.42
2018-09-04T13:53:00.688Z,17.12
2018-09-04T13:55:29.319Z,16.15
2018-09-04T13:57:58.204Z,16.80
2018-09-04T14:00:28.223Z,16.95
2018-09-04T14:02:57.427Z,17.15
2018-09-04T14:05:25.639Z,16.70
2018-09-04T14:07:54.369Z,16.95
2018-09-04T14:10:22.562Z,17.17
2018-09-04T14:12:50.740Z,16.45
2018-09-04T14:15:19.890Z,17.60
2018-09-04T14:17:48.074Z,15.85
2018-09-04T14:20:16.305Z,16.35
2018-09-04T14:22:44.494Z,16.70
2018-09-04T14:25:12.696Z,16.37
2018-09-04T14:27:40.909Z,15.63
2018-09-04T14:30:16.349Z,15.70
2018-09-04T14:32:37.295Z,16.05
2018-09-04T14:35:06.631Z,15.38
2018-09-04T14:37:34.856Z,16.50
2018-09-04T14:40:03.144Z,16.07
2018-09-04T14:42:31.335Z,15.85
2018-09-04T14:44:59.534Z,16.80
2018-09-04T14:47:27.733Z,15.80
2018-09-04T14:49:55.946Z,14.75
2018-09-04T14:52:24.153Z,14.13
2018-09-04T14:54:52.335Z,14.80
2018-09-04T14:57:20.523Z,15.93
2018-09-04T14:59:48.740Z,15.13
2018-09-04T15:02:17.122Z,14.63
2018-09-04T15:04:45.314Z,13.98
2018-09-04T15:07:13.521Z,14.03
2018-09-04T15:09:41.727Z,12.25
2018-09-04T15:12:09.927Z,12.65
2018-09-04T15:14:38.091Z,12.55
2018-09-04T15:17:06.588Z,12.53
2018-09-04T15:19:34.792Z,11.93
2018-09-04T15:22:02.999Z,12.30
2018-09-04T15:24:31.212Z,12.10
2018-09-04T15:26:59.414Z,12.50
2018-09-04T15:29:27.646Z,12.88
2018-09-04T15:31:55.867Z,12.43
2018-09-04T15:34:24.014Z,12.47
2018-09-04T15:36:52.227Z,12.90
2018-09-04T15:39:20.374Z,13.32
2018-09-04T15:41:48.572Z,13.25
2018-09-04T15:44:16.749Z,12.70
2018-09-04T15:46:44.930Z,12.98
2018-09-04T15:49:18.564Z,12.93
2018-09-04T15:51:46.744Z,12.63
2018-09-04T15:54:14.917Z,13.50
2018-09-04T15:56:43.177Z,13.13
2018-09-04T15:59:11.287Z,13.00
2018-09-04T16:01:39.478Z,13.68
2018-09-04T16:04:07.713Z,14.58
2018-09-04T16:06:35.957Z,12.75
2018-09-04T16:09:04.936Z,15.48
2018-09-04T16:11:33.128Z,15.08
2018-09-04T16:14:01.369Z,15.08
2018-09-04T16:16:29.660Z,15.90
2018-09-04T16:18:57.887Z,16.77
2018-09-04T16:21:26.075Z,15.32
2018-09-04T16:23:54.280Z,15.05
2018-09-04T16:26:22.526Z,15.35
2018-09-04T16:28:50.728Z,14.95
2018-09-04T16:31:18.977Z,16.25
2018-09-04T16:33:47.162Z,16.35
2018-09-04T16:36:15.499Z,17.85
2018-09-04T16:38:43.628Z,17.02
2018-09-04T16:41:11.910Z,17.30
2018-09-04T16:43:40.205Z,17.73
2018-09-04T16:46:08.359Z,18.25
2018-09-04T16:48:36.609Z,18.73
2018-09-04T16:51:04.839Z,17.32
2018-09-04T16:53:33.616Z,19.45
2018-09-04T16:56:02.330Z,17.27
2018-09-04T16:58:31.717Z,16.85
2018-09-04T17:01:00.100Z,19.67
2018-09-04T17:03:28.903Z,31.25
2018-09-04T17:05:57.568Z,20.45
2018-09-04T17:08:25.924Z,16.17
2018-09-04T17:10:54.401Z,16.05
2018-09-04T17:13:22.612Z,16.73
2018-09-04T17:15:50.831Z,15.60
2018-09-04T17:18:19.091Z,16.55
2018-09-04T17:20:48.277Z,15.88
2018-09-04T17:23:16.574Z,15.80
2018-09-04T17:25:44.808Z,15.75
2018-09-04T17:28:13.032Z,15.88
2018-09-04T17:30:41.234Z,14.95
2018-09-04T17:33:09.443Z,16.35
2018-09-04T17:35:37.632Z,15.32
2018-09-04T17:38:06.535Z,15.28
2018-09-04T17:40:34.723Z,15.23
2018-09-04T17:43:02.921Z,16.30
2018-09-04T17:45:31.652Z,15.63
2018-09-04T17:47:59.960Z,15.55
2018-09-04T17:50:28.435Z,15.40
2018-09-04T17:52:56.562Z,15.48
2018-09-04T17:55:24.849Z,16.05
2018-09-04T17:57:53.031Z,15.30
2018-09-04T18:00:21.243Z,15.43
2018-09-04T18:02:49.513Z,16.12
2018-09-04T18:05:17.758Z,15.65
2018-09-04T18:07:45.955Z,16.07
2018-09-04T18:10:14.142Z,16.00
2018-09-04T18:12:42.340Z,16.02
2018-09-04T18:15:10.550Z,16.70
2018-09-04T18:17:38.790Z,16.80
2018-09-04T18:20:07.132Z,15.60
2018-09-04T18:22:35.317Z,15.60
2018-09-04T18:25:03.504Z,15.88
2018-09-04T18:27:31.720Z,16.10
2018-09-04T18:29:59.970Z,16.40
2018-09-04T18:32:28.161Z,16.57
2018-09-04T18:34:56.395Z,16.75
2018-09-04T18:37:24.664Z,17.10
2018-09-04T18:39:52.869Z,16.95
2018-09-04T18:42:21.083Z,15.72
2018-09-04T18:44:49.444Z,17.20
2018-09-04T18:47:17.630Z,15.60
2018-09-04T18:49:45.873Z,14.98
2018-09-04T18:52:14.078Z,15.85
2018-09-04T18:54:42.261Z,15.10
2018-09-04T18:57:10.455Z,15.72
2018-09-04T18:59:38.695Z,16.00
2018-09-04T19:02:06.860Z,16.23
2018-09-04T19:04:35.059Z,15.53
2018-09-04T19:07:03.247Z,16.10
2018-09-04T19:09:31.490Z,15.53
2018-09-04T19:11:59.690Z,15.98
2018-09-04T19:14:28.247Z,15.98
2018-09-04T19:16:57.543Z,15.60
2018-09-04T19:19:26.287Z,15.50
2018-09-04T19:21:54.539Z,14.55
2018-09-04T19:24:22.781Z,14.60
2018-09-04T19:26:50.972Z,14.63
2018-09-04T19:29:19.208Z,15.18
2018-09-04T19:31:47.463Z,16.10
2018-09-04T19:34:15.602Z,15.55
2018-09-04T19:36:43.851Z,15.70
2018-09-04T19:39:12.292Z,15.65
2018-09-04T19:41:40.597Z,16.17
2018-09-04T19:44:08.792Z,16.37
2018-09-04T19:46:36.964Z,15.72
2018-09-04T19:49:05.498Z,15.53
2018-09-04T19:51:33.673Z,14.70
2018-09-04T19:54:01.855Z,16.05
2018-09-04T19:56:30.048Z,70.12
2018-09-04T19:58:58.279Z,50.28
2018-09-04T20:01:26.450Z,19.00
2018-09-04T20:03:54.645Z,22.62
2018-09-04T20:06:22.817Z,21.20
2018-09-04T20:08:51.006Z,16.35
2018-09-04T20:11:19.167Z,17.48
2018-09-04T20:13:47.370Z,17.15
2018-09-04T20:16:16.148Z,16.80
2018-09-04T20:18:44.417Z,16.45
2018-09-04T20:21:12.578Z,17.40
2018-09-04T20:23:40.772Z,16.97
2018-09-04T20:26:08.975Z,17.10
2018-09-04T20:28:37.151Z,17.90
2018-09-04T20:31:06.035Z,16.23
2018-09-04T20:33:34.447Z,16.82
2018-09-04T20:36:02.663Z,17.45
2018-09-04T20:38:30.808Z,18.07
2018-09-04T20:40:59.021Z,18.67
2018-09-04T20:43:27.194Z,17.98
2018-09-04T20:45:55.407Z,19.75
2018-09-04T20:48:23.585Z,17.90
2018-09-04T20:50:52.030Z,18.20
2018-09-04T20:53:20.211Z,18.15
2018-09-04T20:55:48.403Z,17.65
2018-09-04T20:58:27.874Z,18.07
2018-09-04T21:01:07.462Z,17.12
2018-09-04T21:03:47.006Z,17.70
2018-09-04T21:06:26.552Z,17.55
2018-09-04T21:09:02.338Z,16.65
2018-09-04T21:11:30.971Z,18.32
2018-09-04T21:13:59.162Z,18.12
2018-09-04T21:16:27.375Z,18.90
2018-09-04T21:18:55.579Z,18.67
2018-09-04T21:21:23.772Z,17.82
2018-09-04T21:23:51.950Z,17.05
2018-09-04T21:26:20.218Z,20.00
2018-09-04T21:28:48.394Z,16.95
2018-09-04T21:31:16.594Z,19.10
2018-09-04T21:33:44.758Z,18.27
2018-09-04T21:36:12.961Z,20.40
2018-09-04T21:38:41.144Z,18.15
2018-09-04T21:41:09.464Z,18.40
2018-09-04T21:43:37.638Z,18.15
2018-09-04T21:46:05.884Z,18.12
2018-09-04T21:48:34.165Z,20.27
2018-09-04T21:51:02.363Z,17.00
2018-09-04T21:53:30.541Z,20.27
2018-09-04T21:55:58.751Z,18.80
2018-09-04T21:58:26.947Z,20.20
2018-09-04T22:00:55.127Z,18.77
2018-09-04T22:03:23.606Z,19.45
2018-09-04T22:05:51.812Z,19.27
2018-09-04T22:08:19.986Z,19.23
2018-09-04T22:10:48.179Z,19.35
2018-09-04T22:13:16.386Z,20.10
2018-09-04T22:15:44.551Z,18.75
2018-09-04T22:18:12.732Z,21.35
2018-09-04T22:20:40.929Z,19.45
2018-09-04T22:23:09.103Z,18.80
2018-09-04T22:25:37.291Z,18.90
2018-09-04T22:28:05.667Z,20.10
2018-09-04T22:30:33.863Z,18.98
2018-09-04T22:33:02.064Z,20.25
2018-09-04T22:35:30.259Z,16.75
2018-09-04T22:37:58.500Z,18.02
2018-09-04T22:40:26.698Z,18.42
2018-09-04T22:42:54.878Z,18.75
2018-09-04T22:45:23.070Z,17.75
2018-09-04T22:47:51.260Z,18.65
2018-09-04T22:50:25.316Z,17.20
2018-09-04T22:52:53.491Z,20.57
2018-09-04T22:55:21.666Z,18.20
2018-09-04T22:57:49.833Z,18.50
2018-09-04T23:00:18.164Z,18.55
2018-09-04T23:02:46.336Z,18.97
2018-09-04T23:05:14.555Z,20.00
2018-09-04T23:07:42.727Z,20.52
2018-09-04T23:10:10.916Z,20.02
2018-09-04T23:12:39.094Z,19.32
2018-09-04T23:15:07.274Z,18.27
2018-09-04T23:17:35.500Z,18.15
2018-09-04T23:20:03.696Z,18.77
2018-09-04T23:22:31.891Z,20.67
2018-09-04T23:25:00.726Z,20.82
2018-09-04T23:27:28.911Z,18.70
2018-09-04T23:29:57.104Z,18.50
2018-09-04T23:32:25.299Z,21.47
2018-09-04T23:34:53.487Z,21.97
2018-09-04T23:37:21.679Z,22.42
2018-09-04T23:39:49.856Z,22.27
2018-09-04T23:42:18.068Z,21.50
2018-09-04T23:44:46.251Z,23.60
2018-09-04T23:47:14.440Z,21.70
2018-09-04T23:49:42.632Z,20.83
2018-09-04T23:52:10.827Z,21.27
2018-09-04T23:54:39.020Z,19.37
2018-09-04T23:57:07.215Z,22.50
2018-09-04T23:59:35.404Z,20.07
